EST,Max TemperatureF,Mean TemperatureF,Min TemperatureF,Max Dew PointF,MeanDew PointF,Min DewpointF,Max Humidity, Mean Humidity, Min Humidity, Max Sea Level PressureIn, Mean Sea Level PressureIn, Min Sea Level PressureIn, Max VisibilityMiles, Mean VisibilityMiles, Min VisibilityMiles, Max Wind SpeedMPH, Mean Wind SpeedMPH, Max Gust SpeedMPH,PrecipitationIn, CloudCover, Events, WindDirDegrees
2013-1-1,,,,,,,,,,,,,,,,,,,,,,
2013-1-2,32,29,28,18,17,16,60,59,55,30.05,30.02,29.99,10,10,10,16,11,,0.00,5,,310
2013-1-3,28,24,21,18,15,10,69,65,63,30.18,30.13,30.08,10,10,10,12,8,,0.00,1,,327
2013-1-4,37,35,33,25,25,25,70,63,60,30.06,29.99,29.92,10,10,10,18,14,,0.00,2,,265
2013-1-5,42,38,35,27,26,25,65,58,49,30.26,30.23,30.21,10,10,10,12,10,,0.00,0,,298
2013-1-6,42,42,39,36,35,34,81,76,70,30.03,30.00,29.98,10,10,10,17,10,30,0.00,0,,240
2013-1-7,42,42,39,32,28,27,70,59,53,30.40,30.31,30.26,10,10,10,15,8,,0.00,0,,331
2013-1-8,46,44,42,37,36,34,76,72,62,30.45,30.40,30.35,10,10,10,20,14,,0.00,0,,244
2013-1-9,48,42,42,41,38,36,76,76,76,30.39,30.31,30.23,10,9,8,7,2,,0.00,2,,210
2013-1-10,,,,,,,,,,,,,,,,,,,,,,
2013-1-11,44,40,37,41,37,32,87,79,76,30.50,30.41,30.30,10,10,10,8,2,,0.00,6,,170
2013-1-12,46,45,44,46,45,45,100,100,100,30.18,30.16,30.14,2,1,0,7,3,,0.00,8,Fog,70
2013-1-13,48,45,42,48,46,43,100,98,93,30.18,30.14,30.10,10,4,0,7,3,,0.00,7,Fog,230
2013-1-14,55,52,50,54,51,45,100,94,76,30.17,30.08,30.04,10,5,0,12,8,,0.00,5,Fog,294
2013-1-15,39,38,37,34,32,30,87,78,70,30.33,30.30,30.28,10,10,10,7,3,,0.00,8,,10
2013-1-16,41,40,37,39,38,36,100,94,93,29.95,29.89,29.81,6,3,0,7,3,,0.00,8,Fog,22
2013-1-17,,,,,,,,,,,,,,,,,,,,,,
2013-1-18,35,30,26,19,16,5,69,60,37,30.44,30.39,30.34,10,10,10,12,11,,0.00,0,,332
2013-1-19,46,44,42,36,34,34,71,66,62,30.31,30.22,30.10,10,10,10,34,28,40,0.00,0,,230
2013-1-20,53,48,46,39,36,32,76,60,44,29.77,29.73,29.69,10,10,10,21,17,28,0.00,0,,243
2013-1-21,30,29,28,28,19,10,93,65,44,30.11,30.01,29.93,10,6,0,5,2,,0.00,7,Snow,190
2013-1-22,23,23,21,9,6,3,54,48,46,30.02,29.97,29.95,10,10,10,20,13,22,0.00,5,,299
2013-1-23,17,16,15,1,1,0,53,49,45,30.22,30.17,30.13,10,10,10,15,12,,0.00,5,,306
2013-1-24,21,18,15,5,2,0,62,48,39,30.20,30.17,30.16,10,10,10,14,11,24,0.00,0,,327
2013-1-25,19,19,19,5,5,5,54,54,54,30.37,30.37,30.36,10,10,10,14,14,24,0.00,0,,305
2013-1-26,26,19,19,16,13,10,68,66,64,30.12,30.12,30.12,10,10,10,14,14,,0.00,0,,330
2013-1-27,32,28,24,12,9,7,59,43,35,30.45,30.43,30.42,10,10,10,14,12,21,0.00,0,,307
2013-1-28,37,30,28,36,22,-2,93,70,27,30.41,30.31,30.11,10,6,1,8,1,,0.00,8,Rain-Snow,225
2013-1-29,41,39,37,36,36,36,93,87,81,30.18,30.16,30.15,10,8,2,6,5,,0.00,6,,140
2013-1-30,55,53,51,54,53,52,100,99,94,29.90,29.77,29.72,5,2,1,21,17,32,0.00,7,,210
2013-1-31,51,48,42,50,32,19,94,55,39,29.51,29.34,29.14,10,10,7,23,21,39,0.00,3,Rain,275